sensor_id;sensor_type;location;lat;lon;timestamp;P1;durP1;ratioP1;P2;durP2;ratioP2
32080;SDS011;18593;51.426;7.030;2023-06-04T00:00:27;5.35;;;2.60;;
32080;SDS011;18593;51.426;7.030;2023-06-04T00:02:55;5.68;;;2.78;;
32080;SDS011;18593;51.426;7.030;2023-06-04T00:05:22;5.88;;;2.92;;
32080;SDS011;18593;51.426;7.030;2023-06-04T00:07:50;6.57;;;2.83;;
32080;SDS011;18593;51.426;7.030;2023-06-04T00:10:17;5.03;;;2.50;;
32080;SDS011;18593;51.426;7.030;2023-06-04T00:12:45;4.95;;;2.40;;
32080;SDS011;18593;51.426;7.030;2023-06-04T00:15:13;8.73;;;2.63;;
32080;SDS011;18593;51.426;7.030;2023-06-04T00:17:41;5.43;;;2.15;;
32080;SDS011;18593;51.426;7.030;2023-06-04T00:20:09;6.70;;;2.92;;
32080;SDS011;18593;51.426;7.030;2023-06-04T00:22:37;6.20;;;2.70;;
32080;SDS011;18593;51.426;7.030;2023-06-04T00:25:07;4.70;;;2.50;;
32080;SDS011;18593;51.426;7.030;2023-06-04T00:27:34;5.75;;;2.38;;
32080;SDS011;18593;51.426;7.030;2023-06-04T00:30:02;6.97;;;2.50;;
32080;SDS011;18593;51.426;7.030;2023-06-04T00:32:32;5.72;;;2.40;;
32080;SDS011;18593;51.426;7.030;2023-06-04T00:34:59;4.53;;;2.22;;
32080;SDS011;18593;51.426;7.030;2023-06-04T00:37:27;5.60;;;2.30;;
32080;SDS011;18593;51.426;7.030;2023-06-04T00:39:55;5.07;;;2.50;;
32080;SDS011;18593;51.426;7.030;2023-06-04T00:42:22;4.78;;;2.15;;
32080;SDS011;18593;51.426;7.030;2023-06-04T00:44:49;5.82;;;2.67;;
32080;SDS011;18593;51.426;7.030;2023-06-04T00:47:17;5.20;;;2.20;;
32080;SDS011;18593;51.426;7.030;2023-06-04T00:49:48;5.68;;;2.30;;
32080;SDS011;18593;51.426;7.030;2023-06-04T00:52:16;6.00;;;2.40;;
32080;SDS011;18593;51.426;7.030;2023-06-04T00:54:44;5.30;;;2.60;;
32080;SDS011;18593;51.426;7.030;2023-06-04T00:57:11;5.43;;;2.05;;
32080;SDS011;18593;51.426;7.030;2023-06-04T00:59:38;5.00;;;2.22;;
32080;SDS011;18593;51.426;7.030;2023-06-04T01:02:08;5.03;;;2.65;;
32080;SDS011;18593;51.426;7.030;2023-06-04T01:04:42;6.38;;;2.30;;
32080;SDS011;18593;51.426;7.030;2023-06-04T01:07:17;5.38;;;2.03;;
32080;SDS011;18593;51.426;7.030;2023-06-04T01:09:46;5.57;;;2.30;;
32080;SDS011;18593;51.426;7.030;2023-06-04T01:12:13;6.35;;;2.05;;
32080;SDS011;18593;51.426;7.030;2023-06-04T01:14:40;4.95;;;2.45;;
32080;SDS011;18593;51.426;7.030;2023-06-04T01:17:11;5.78;;;2.00;;
32080;SDS011;18593;51.426;7.030;2023-06-04T01:22:48;4.82;;;2.10;;
32080;SDS011;18593;51.426;7.030;2023-06-04T01:25:32;5.78;;;2.45;;
32080;SDS011;18593;51.426;7.030;2023-06-04T01:28:04;6.35;;;2.15;;
32080;SDS011;18593;51.426;7.030;2023-06-04T01:30:33;6.55;;;2.22;;
32080;SDS011;18593;51.426;7.030;2023-06-04T01:33:08;5.80;;;2.50;;
32080;SDS011;18593;51.426;7.030;2023-06-04T01:35:38;5.60;;;2.15;;
32080;SDS011;18593;51.426;7.030;2023-06-04T01:38:06;4.55;;;2.10;;
32080;SDS011;18593;51.426;7.030;2023-06-04T01:40:34;4.85;;;2.30;;
32080;SDS011;18593;51.426;7.030;2023-06-04T01:43:02;6.80;;;2.10;;
32080;SDS011;18593;51.426;7.030;2023-06-04T01:45:29;4.40;;;2.20;;
32080;SDS011;18593;51.426;7.030;2023-06-04T01:47:57;4.70;;;2.05;;
32080;SDS011;18593;51.426;7.030;2023-06-04T01:50:24;6.55;;;2.40;;
32080;SDS011;18593;51.426;7.030;2023-06-04T01:52:53;4.25;;;2.10;;
32080;SDS011;18593;51.426;7.030;2023-06-04T01:55:20;3.80;;;1.80;;
32080;SDS011;18593;51.426;7.030;2023-06-04T01:57:50;4.85;;;2.20;;
32080;SDS011;18593;51.426;7.030;2023-06-04T02:00:17;5.35;;;2.25;;
32080;SDS011;18593;51.426;7.030;2023-06-04T02:02:45;8.02;;;2.25;;
32080;SDS011;18593;51.426;7.030;2023-06-04T02:05:14;7.47;;;2.20;;
32080;SDS011;18593;51.426;7.030;2023-06-04T02:07:42;5.82;;;2.58;;
32080;SDS011;18593;51.426;7.030;2023-06-04T02:12:52;3.67;;;1.75;;
32080;SDS011;18593;51.426;7.030;2023-06-04T02:15:22;5.75;;;2.40;;
32080;SDS011;18593;51.426;7.030;2023-06-04T02:17:50;3.90;;;2.03;;
32080;SDS011;18593;51.426;7.030;2023-06-04T02:20:24;4.75;;;2.35;;
32080;SDS011;18593;51.426;7.030;2023-06-04T02:22:51;4.28;;;2.20;;
32080;SDS011;18593;51.426;7.030;2023-06-04T02:25:21;4.18;;;2.05;;
32080;SDS011;18593;51.426;7.030;2023-06-04T02:27:48;6.68;;;2.10;;
32080;SDS011;18593;51.426;7.030;2023-06-04T02:30:15;6.05;;;2.08;;
32080;SDS011;18593;51.426;7.030;2023-06-04T02:32:43;6.35;;;2.20;;
32080;SDS011;18593;51.426;7.030;2023-06-04T02:35:10;5.60;;;1.98;;
32080;SDS011;18593;51.426;7.030;2023-06-04T02:37:37;5.20;;;2.20;;
32080;SDS011;18593;51.426;7.030;2023-06-04T02:40:05;3.78;;;2.10;;
32080;SDS011;18593;51.426;7.030;2023-06-04T02:42:35;4.55;;;2.15;;
32080;SDS011;18593;51.426;7.030;2023-06-04T02:45:03;5.97;;;2.38;;
32080;SDS011;18593;51.426;7.030;2023-06-04T02:47:31;5.43;;;1.95;;
32080;SDS011;18593;51.426;7.030;2023-06-04T02:49:59;4.03;;;2.20;;
32080;SDS011;18593;51.426;7.030;2023-06-04T02:52:27;4.45;;;2.30;;
32080;SDS011;18593;51.426;7.030;2023-06-04T02:54:55;6.00;;;2.08;;
32080;SDS011;18593;51.426;7.030;2023-06-04T02:57:22;4.82;;;2.30;;
32080;SDS011;18593;51.426;7.030;2023-06-04T02:59:51;7.05;;;2.50;;
32080;SDS011;18593;51.426;7.030;2023-06-04T03:02:20;4.45;;;2.15;;
32080;SDS011;18593;51.426;7.030;2023-06-04T03:04:47;4.30;;;2.33;;
32080;SDS011;18593;51.426;7.030;2023-06-04T03:07:16;5.60;;;2.22;;
32080;SDS011;18593;51.426;7.030;2023-06-04T03:09:45;4.72;;;2.25;;
32080;SDS011;18593;51.426;7.030;2023-06-04T03:12:13;5.28;;;2.03;;
32080;SDS011;18593;51.426;7.030;2023-06-04T03:14:40;6.82;;;2.20;;
32080;SDS011;18593;51.426;7.030;2023-06-04T03:17:09;4.63;;;2.10;;
32080;SDS011;18593;51.426;7.030;2023-06-04T03:19:36;6.57;;;2.08;;
32080;SDS011;18593;51.426;7.030;2023-06-04T03:22:05;5.32;;;2.35;;
32080;SDS011;18593;51.426;7.030;2023-06-04T03:24:34;6.25;;;2.28;;
32080;SDS011;18593;51.426;7.030;2023-06-04T03:27:09;4.95;;;2.30;;
32080;SDS011;18593;51.426;7.030;2023-06-04T03:29:39;6.60;;;2.50;;
32080;SDS011;18593;51.426;7.030;2023-06-04T03:32:09;4.53;;;2.00;;
32080;SDS011;18593;51.426;7.030;2023-06-04T03:34:38;5.15;;;2.15;;
32080;SDS011;18593;51.426;7.030;2023-06-04T03:37:05;4.70;;;2.50;;
32080;SDS011;18593;51.426;7.030;2023-06-04T03:39:33;4.93;;;2.15;;
32080;SDS011;18593;51.426;7.030;2023-06-04T03:42:03;5.47;;;2.20;;
32080;SDS011;18593;51.426;7.030;2023-06-04T03:44:31;5.53;;;2.25;;
32080;SDS011;18593;51.426;7.030;2023-06-04T03:46:59;6.50;;;2.65;;
32080;SDS011;18593;51.426;7.030;2023-06-04T03:49:28;5.95;;;2.30;;
32080;SDS011;18593;51.426;7.030;2023-06-04T03:51:55;3.90;;;1.98;;
32080;SDS011;18593;51.426;7.030;2023-06-04T03:54:23;5.40;;;2.45;;
32080;SDS011;18593;51.426;7.030;2023-06-04T03:56:50;4.68;;;2.22;;
32080;SDS011;18593;51.426;7.030;2023-06-04T03:59:18;5.78;;;2.20;;
32080;SDS011;18593;51.426;7.030;2023-06-04T04:01:46;4.18;;;2.30;;
32080;SDS011;18593;51.426;7.030;2023-06-04T04:04:14;4.70;;;2.33;;
32080;SDS011;18593;51.426;7.030;2023-06-04T04:06:42;4.15;;;2.10;;
32080;SDS011;18593;51.426;7.030;2023-06-04T04:09:11;4.60;;;2.35;;
32080;SDS011;18593;51.426;7.030;2023-06-04T04:11:38;4.47;;;2.13;;
32080;SDS011;18593;51.426;7.030;2023-06-04T04:14:05;5.22;;;2.40;;
32080;SDS011;18593;51.426;7.030;2023-06-04T04:16:33;6.47;;;2.25;;
32080;SDS011;18593;51.426;7.030;2023-06-04T04:19:00;4.78;;;2.63;;
32080;SDS011;18593;51.426;7.030;2023-06-04T04:21:28;5.60;;;2.20;;
32080;SDS011;18593;51.426;7.030;2023-06-04T04:23:56;6.18;;;2.30;;
32080;SDS011;18593;51.426;7.030;2023-06-04T04:26:24;4.70;;;2.00;;
32080;SDS011;18593;51.426;7.030;2023-06-04T04:28:53;4.82;;;2.00;;
32080;SDS011;18593;51.426;7.030;2023-06-04T04:31:24;4.15;;;1.98;;
32080;SDS011;18593;51.426;7.030;2023-06-04T04:33:54;7.25;;;2.70;;
32080;SDS011;18593;51.426;7.030;2023-06-04T04:36:22;6.60;;;2.65;;
32080;SDS011;18593;51.426;7.030;2023-06-04T04:38:49;6.85;;;2.40;;
32080;SDS011;18593;51.426;7.030;2023-06-04T04:41:21;7.13;;;3.05;;
32080;SDS011;18593;51.426;7.030;2023-06-04T04:43:52;5.38;;;2.40;;
32080;SDS011;18593;51.426;7.030;2023-06-04T04:46:24;6.60;;;2.60;;
32080;SDS011;18593;51.426;7.030;2023-06-04T04:48:52;6.95;;;3.40;;
32080;SDS011;18593;51.426;7.030;2023-06-04T04:51:19;9.18;;;3.20;;
32080;SDS011;18593;51.426;7.030;2023-06-04T04:53:47;5.70;;;3.15;;
32080;SDS011;18593;51.426;7.030;2023-06-04T04:56:15;6.47;;;3.40;;
32080;SDS011;18593;51.426;7.030;2023-06-04T04:58:48;6.32;;;3.90;;
32080;SDS011;18593;51.426;7.030;2023-06-04T05:01:16;7.53;;;3.80;;
32080;SDS011;18593;51.426;7.030;2023-06-04T05:03:44;7.30;;;3.63;;
32080;SDS011;18593;51.426;7.030;2023-06-04T05:06:13;8.27;;;4.00;;
32080;SDS011;18593;51.426;7.030;2023-06-04T05:08:41;7.53;;;3.95;;
32080;SDS011;18593;51.426;7.030;2023-06-04T05:11:08;10.43;;;3.97;;
32080;SDS011;18593;51.426;7.030;2023-06-04T05:13:36;6.53;;;3.33;;
32080;SDS011;18593;51.426;7.030;2023-06-04T05:16:06;8.65;;;3.10;;
32080;SDS011;18593;51.426;7.030;2023-06-04T05:18:36;6.07;;;3.35;;
32080;SDS011;18593;51.426;7.030;2023-06-04T05:21:06;10.35;;;3.33;;
32080;SDS011;18593;51.426;7.030;2023-06-04T05:23:39;6.03;;;2.97;;
32080;SDS011;18593;51.426;7.030;2023-06-04T05:26:07;8.05;;;3.00;;
32080;SDS011;18593;51.426;7.030;2023-06-04T05:28:34;5.57;;;2.92;;
32080;SDS011;18593;51.426;7.030;2023-06-04T05:31:05;9.98;;;3.40;;
32080;SDS011;18593;51.426;7.030;2023-06-04T05:33:34;6.47;;;2.67;;
32080;SDS011;18593;51.426;7.030;2023-06-04T05:36:06;5.93;;;2.65;;
32080;SDS011;18593;51.426;7.030;2023-06-04T05:38:40;11.43;;;2.55;;
32080;SDS011;18593;51.426;7.030;2023-06-04T05:41:10;7.68;;;2.85;;
32080;SDS011;18593;51.426;7.030;2023-06-04T05:43:38;6.35;;;2.85;;
32080;SDS011;18593;51.426;7.030;2023-06-04T05:46:09;5.45;;;2.90;;
32080;SDS011;18593;51.426;7.030;2023-06-04T05:48:37;5.78;;;3.15;;
32080;SDS011;18593;51.426;7.030;2023-06-04T05:51:04;5.25;;;2.88;;
32080;SDS011;18593;51.426;7.030;2023-06-04T05:53:32;17.48;;;3.47;;
32080;SDS011;18593;51.426;7.030;2023-06-04T05:55:59;5.68;;;3.00;;
32080;SDS011;18593;51.426;7.030;2023-06-04T05:58:26;6.50;;;3.40;;
32080;SDS011;18593;51.426;7.030;2023-06-04T06:00:53;6.07;;;2.85;;
32080;SDS011;18593;51.426;7.030;2023-06-04T06:03:22;8.77;;;2.55;;
32080;SDS011;18593;51.426;7.030;2023-06-04T06:05:50;7.15;;;2.80;;
32080;SDS011;18593;51.426;7.030;2023-06-04T06:08:18;6.47;;;2.90;;
32080;SDS011;18593;51.426;7.030;2023-06-04T06:10:45;7.18;;;2.70;;
32080;SDS011;18593;51.426;7.030;2023-06-04T06:13:13;5.13;;;2.50;;
32080;SDS011;18593;51.426;7.030;2023-06-04T06:15:43;4.60;;;2.65;;
32080;SDS011;18593;51.426;7.030;2023-06-04T06:18:15;5.68;;;2.95;;
32080;SDS011;18593;51.426;7.030;2023-06-04T06:20:44;5.97;;;3.03;;
32080;SDS011;18593;51.426;7.030;2023-06-04T06:23:11;7.10;;;2.78;;
32080;SDS011;18593;51.426;7.030;2023-06-04T06:25:42;7.55;;;2.70;;
32080;SDS011;18593;51.426;7.030;2023-06-04T06:28:17;9.13;;;3.30;;
32080;SDS011;18593;51.426;7.030;2023-06-04T06:30:45;5.25;;;2.53;;
32080;SDS011;18593;51.426;7.030;2023-06-04T06:33:13;6.65;;;2.72;;
32080;SDS011;18593;51.426;7.030;2023-06-04T06:35:41;4.93;;;2.72;;
32080;SDS011;18593;51.426;7.030;2023-06-04T06:38:11;6.00;;;2.70;;
32080;SDS011;18593;51.426;7.030;2023-06-04T06:40:39;4.68;;;2.30;;
32080;SDS011;18593;51.426;7.030;2023-06-04T06:43:07;6.35;;;2.35;;
32080;SDS011;18593;51.426;7.030;2023-06-04T06:45:35;8.98;;;3.05;;
32080;SDS011;18593;51.426;7.030;2023-06-04T06:48:02;7.55;;;2.58;;
32080;SDS011;18593;51.426;7.030;2023-06-04T06:50:30;7.55;;;3.00;;
32080;SDS011;18593;51.426;7.030;2023-06-04T06:52:59;5.20;;;2.63;;
32080;SDS011;18593;51.426;7.030;2023-06-04T06:55:27;6.55;;;2.53;;
32080;SDS011;18593;51.426;7.030;2023-06-04T06:57:54;5.85;;;2.85;;
32080;SDS011;18593;51.426;7.030;2023-06-04T07:00:21;5.95;;;2.40;;
32080;SDS011;18593;51.426;7.030;2023-06-04T07:02:49;4.65;;;2.28;;
32080;SDS011;18593;51.426;7.030;2023-06-04T07:05:16;5.63;;;2.35;;
32080;SDS011;18593;51.426;7.030;2023-06-04T07:07:43;6.35;;;2.22;;
32080;SDS011;18593;51.426;7.030;2023-06-04T07:10:13;5.18;;;2.20;;
32080;SDS011;18593;51.426;7.030;2023-06-04T07:12:40;6.50;;;2.40;;
32080;SDS011;18593;51.426;7.030;2023-06-04T07:15:07;3.75;;;1.77;;
32080;SDS011;18593;51.426;7.030;2023-06-04T07:17:35;8.30;;;2.40;;
32080;SDS011;18593;51.426;7.030;2023-06-04T07:20:03;5.05;;;2.50;;
32080;SDS011;18593;51.426;7.030;2023-06-04T07:22:33;4.97;;;1.90;;
32080;SDS011;18593;51.426;7.030;2023-06-04T07:25:01;4.55;;;2.05;;
32080;SDS011;18593;51.426;7.030;2023-06-04T07:27:30;7.07;;;2.08;;
32080;SDS011;18593;51.426;7.030;2023-06-04T07:29:58;4.40;;;2.00;;
32080;SDS011;18593;51.426;7.030;2023-06-04T07:32:25;6.72;;;2.40;;
32080;SDS011;18593;51.426;7.030;2023-06-04T07:34:52;5.97;;;2.00;;
32080;SDS011;18593;51.426;7.030;2023-06-04T07:37:20;10.00;;;1.88;;
32080;SDS011;18593;51.426;7.030;2023-06-04T07:39:47;5.72;;;1.95;;
32080;SDS011;18593;51.426;7.030;2023-06-04T07:42:14;5.85;;;1.70;;
32080;SDS011;18593;51.426;7.030;2023-06-04T07:44:43;6.40;;;1.60;;
32080;SDS011;18593;51.426;7.030;2023-06-04T07:47:10;3.33;;;1.48;;
32080;SDS011;18593;51.426;7.030;2023-06-04T07:49:37;4.80;;;1.77;;
32080;SDS011;18593;51.426;7.030;2023-06-04T07:52:05;6.72;;;2.13;;
32080;SDS011;18593;51.426;7.030;2023-06-04T07:54:33;4.55;;;2.13;;
32080;SDS011;18593;51.426;7.030;2023-06-04T07:57:00;4.93;;;1.67;;
32080;SDS011;18593;51.426;7.030;2023-06-04T07:59:27;4.53;;;1.88;;
32080;SDS011;18593;51.426;7.030;2023-06-04T08:01:57;8.05;;;2.20;;
32080;SDS011;18593;51.426;7.030;2023-06-04T08:04:24;4.38;;;2.10;;
32080;SDS011;18593;51.426;7.030;2023-06-04T08:06:55;5.20;;;1.90;;
32080;SDS011;18593;51.426;7.030;2023-06-04T08:09:34;7.13;;;2.30;;
32080;SDS011;18593;51.426;7.030;2023-06-04T08:12:01;6.70;;;2.03;;
32080;SDS011;18593;51.426;7.030;2023-06-04T08:14:29;5.53;;;2.10;;
32080;SDS011;18593;51.426;7.030;2023-06-04T08:16:58;4.57;;;2.35;;
32080;SDS011;18593;51.426;7.030;2023-06-04T08:19:25;4.70;;;2.45;;
32080;SDS011;18593;51.426;7.030;2023-06-04T08:21:53;5.15;;;2.33;;
32080;SDS011;18593;51.426;7.030;2023-06-04T08:24:21;6.30;;;2.67;;
32080;SDS011;18593;51.426;7.030;2023-06-04T08:26:48;9.77;;;2.55;;
32080;SDS011;18593;51.426;7.030;2023-06-04T08:29:16;4.85;;;2.53;;
32080;SDS011;18593;51.426;7.030;2023-06-04T08:31:43;5.65;;;2.35;;
32080;SDS011;18593;51.426;7.030;2023-06-04T08:34:12;7.53;;;3.15;;
32080;SDS011;18593;51.426;7.030;2023-06-04T08:36:39;6.32;;;2.53;;
32080;SDS011;18593;51.426;7.030;2023-06-04T08:39:07;5.00;;;2.50;;
32080;SDS011;18593;51.426;7.030;2023-06-04T08:41:38;4.78;;;2.30;;
32080;SDS011;18593;51.426;7.030;2023-06-04T08:44:10;10.98;;;2.80;;
32080;SDS011;18593;51.426;7.030;2023-06-04T08:46:38;6.03;;;2.67;;
32080;SDS011;18593;51.426;7.030;2023-06-04T08:49:06;4.90;;;2.42;;
32080;SDS011;18593;51.426;7.030;2023-06-04T08:51:38;5.28;;;2.70;;
32080;SDS011;18593;51.426;7.030;2023-06-04T08:54:06;4.60;;;2.58;;
32080;SDS011;18593;51.426;7.030;2023-06-04T08:56:34;8.43;;;2.97;;
32080;SDS011;18593;51.426;7.030;2023-06-04T08:59:03;6.75;;;3.25;;
32080;SDS011;18593;51.426;7.030;2023-06-04T09:01:32;7.15;;;3.20;;
32080;SDS011;18593;51.426;7.030;2023-06-04T09:04:05;8.43;;;2.97;;
32080;SDS011;18593;51.426;7.030;2023-06-04T09:06:35;7.70;;;2.58;;
32080;SDS011;18593;51.426;7.030;2023-06-04T09:09:40;6.43;;;2.95;;
32080;SDS011;18593;51.426;7.030;2023-06-04T09:12:12;5.95;;;2.80;;
32080;SDS011;18593;51.426;7.030;2023-06-04T09:14:48;5.72;;;2.75;;
32080;SDS011;18593;51.426;7.030;2023-06-04T09:17:16;9.73;;;2.80;;
32080;SDS011;18593;51.426;7.030;2023-06-04T09:19:48;8.77;;;2.60;;
32080;SDS011;18593;51.426;7.030;2023-06-04T09:22:19;9.32;;;2.90;;
32080;SDS011;18593;51.426;7.030;2023-06-04T09:24:46;8.88;;;2.80;;
32080;SDS011;18593;51.426;7.030;2023-06-04T09:27:15;4.53;;;2.47;;
32080;SDS011;18593;51.426;7.030;2023-06-04T09:29:50;6.40;;;3.13;;
32080;SDS011;18593;51.426;7.030;2023-06-04T09:32:21;7.53;;;2.63;;
32080;SDS011;18593;51.426;7.030;2023-06-04T09:34:49;4.68;;;2.85;;
32080;SDS011;18593;51.426;7.030;2023-06-04T09:37:19;6.15;;;3.13;;
32080;SDS011;18593;51.426;7.030;2023-06-04T09:39:52;9.02;;;2.60;;
32080;SDS011;18593;51.426;7.030;2023-06-04T09:42:20;12.93;;;3.50;;
32080;SDS011;18593;51.426;7.030;2023-06-04T09:44:48;5.63;;;2.58;;
32080;SDS011;18593;51.426;7.030;2023-06-04T09:47:15;7.55;;;2.50;;
32080;SDS011;18593;51.426;7.030;2023-06-04T09:49:43;6.80;;;2.17;;
32080;SDS011;18593;51.426;7.030;2023-06-04T09:52:10;6.65;;;1.90;;
32080;SDS011;18593;51.426;7.030;2023-06-04T09:54:40;7.20;;;2.10;;
32080;SDS011;18593;51.426;7.030;2023-06-04T09:57:13;4.53;;;1.70;;
32080;SDS011;18593;51.426;7.030;2023-06-04T09:59:43;3.60;;;1.60;;
32080;SDS011;18593;51.426;7.030;2023-06-04T10:02:12;4.22;;;1.88;;
32080;SDS011;18593;51.426;7.030;2023-06-04T10:04:40;4.38;;;1.90;;
32080;SDS011;18593;51.426;7.030;2023-06-04T10:07:09;4.70;;;1.98;;
32080;SDS011;18593;51.426;7.030;2023-06-04T10:09:39;7.90;;;2.00;;
32080;SDS011;18593;51.426;7.030;2023-06-04T10:12:11;5.60;;;2.30;;
32080;SDS011;18593;51.426;7.030;2023-06-04T10:14:41;5.45;;;2.13;;
32080;SDS011;18593;51.426;7.030;2023-06-04T10:17:16;6.10;;;2.00;;
32080;SDS011;18593;51.426;7.030;2023-06-04T10:19:51;5.93;;;2.15;;
32080;SDS011;18593;51.426;7.030;2023-06-04T10:22:20;8.93;;;2.20;;
32080;SDS011;18593;51.426;7.030;2023-06-04T10:24:49;12.52;;;2.63;;
32080;SDS011;18593;51.426;7.030;2023-06-04T10:27:17;8.73;;;2.63;;
32080;SDS011;18593;51.426;7.030;2023-06-04T10:29:45;6.13;;;2.25;;
32080;SDS011;18593;51.426;7.030;2023-06-04T10:32:13;4.72;;;2.25;;
32080;SDS011;18593;51.426;7.030;2023-06-04T10:34:40;7.55;;;2.20;;
32080;SDS011;18593;51.426;7.030;2023-06-04T10:37:18;3.67;;;1.90;;
32080;SDS011;18593;51.426;7.030;2023-06-04T10:39:51;6.15;;;2.55;;
32080;SDS011;18593;51.426;7.030;2023-06-04T10:42:19;4.03;;;2.10;;
32080;SDS011;18593;51.426;7.030;2023-06-04T10:44:47;7.25;;;2.83;;
32080;SDS011;18593;51.426;7.030;2023-06-04T10:47:20;6.18;;;2.22;;
32080;SDS011;18593;51.426;7.030;2023-06-04T10:49:49;5.03;;;2.35;;
32080;SDS011;18593;51.426;7.030;2023-06-04T10:52:17;10.27;;;2.53;;
32080;SDS011;18593;51.426;7.030;2023-06-04T10:54:45;8.10;;;2.75;;
32080;SDS011;18593;51.426;7.030;2023-06-04T10:57:16;8.27;;;2.47;;
32080;SDS011;18593;51.426;7.030;2023-06-04T10:59:53;5.35;;;2.35;;
32080;SDS011;18593;51.426;7.030;2023-06-04T11:02:20;6.07;;;2.92;;
32080;SDS011;18593;51.426;7.030;2023-06-04T11:04:58;4.53;;;2.70;;
32080;SDS011;18593;51.426;7.030;2023-06-04T11:07:28;4.85;;;2.47;;
32080;SDS011;18593;51.426;7.030;2023-06-04T11:10:06;5.18;;;2.60;;
32080;SDS011;18593;51.426;7.030;2023-06-04T11:12:42;4.85;;;2.45;;
32080;SDS011;18593;51.426;7.030;2023-06-04T11:15:11;4.60;;;2.65;;
32080;SDS011;18593;51.426;7.030;2023-06-04T11:17:48;6.00;;;2.55;;
32080;SDS011;18593;51.426;7.030;2023-06-04T11:20:17;6.85;;;2.22;;
32080;SDS011;18593;51.426;7.030;2023-06-04T11:22:50;5.47;;;2.47;;
32080;SDS011;18593;51.426;7.030;2023-06-04T11:25:18;8.95;;;2.50;;
32080;SDS011;18593;51.426;7.030;2023-06-04T11:27:48;5.25;;;2.70;;
32080;SDS011;18593;51.426;7.030;2023-06-04T11:30:17;16.52;;;2.63;;
32080;SDS011;18593;51.426;7.030;2023-06-04T11:32:45;8.18;;;2.60;;
32080;SDS011;18593;51.426;7.030;2023-06-04T11:35:13;5.70;;;2.60;;
32080;SDS011;18593;51.426;7.030;2023-06-04T11:37:40;4.25;;;2.47;;
32080;SDS011;18593;51.426;7.030;2023-06-04T11:40:17;5.20;;;2.08;;
32080;SDS011;18593;51.426;7.030;2023-06-04T11:42:45;7.05;;;2.30;;
32080;SDS011;18593;51.426;7.030;2023-06-04T11:45:15;4.80;;;2.22;;
32080;SDS011;18593;51.426;7.030;2023-06-04T11:47:44;4.95;;;2.35;;
32080;SDS011;18593;51.426;7.030;2023-06-04T11:50:12;5.78;;;2.22;;
32080;SDS011;18593;51.426;7.030;2023-06-04T11:52:40;6.22;;;2.20;;
32080;SDS011;18593;51.426;7.030;2023-06-04T11:55:07;5.57;;;2.22;;
32080;SDS011;18593;51.426;7.030;2023-06-04T11:57:36;4.72;;;2.40;;
32080;SDS011;18593;51.426;7.030;2023-06-04T12:00:05;3.95;;;2.00;;
32080;SDS011;18593;51.426;7.030;2023-06-04T12:02:35;5.90;;;2.70;;
32080;SDS011;18593;51.426;7.030;2023-06-04T12:05:12;9.65;;;2.40;;
32080;SDS011;18593;51.426;7.030;2023-06-04T12:07:43;4.95;;;2.50;;
32080;SDS011;18593;51.426;7.030;2023-06-04T12:10:12;6.60;;;2.72;;
32080;SDS011;18593;51.426;7.030;2023-06-04T12:12:40;5.88;;;2.60;;
32080;SDS011;18593;51.426;7.030;2023-06-04T12:15:09;9.32;;;2.70;;
32080;SDS011;18593;51.426;7.030;2023-06-04T12:17:37;8.38;;;2.75;;
32080;SDS011;18593;51.426;7.030;2023-06-04T12:20:14;5.43;;;2.58;;
32080;SDS011;18593;51.426;7.030;2023-06-04T12:22:44;4.20;;;2.50;;
32080;SDS011;18593;51.426;7.030;2023-06-04T12:25:22;8.50;;;2.83;;
32080;SDS011;18593;51.426;7.030;2023-06-04T12:27:52;7.95;;;3.17;;
32080;SDS011;18593;51.426;7.030;2023-06-04T12:30:21;5.22;;;2.58;;
32080;SDS011;18593;51.426;7.030;2023-06-04T12:32:48;7.47;;;3.30;;
32080;SDS011;18593;51.426;7.030;2023-06-04T12:35:16;9.02;;;2.60;;
32080;SDS011;18593;51.426;7.030;2023-06-04T12:37:44;5.88;;;2.97;;
32080;SDS011;18593;51.426;7.030;2023-06-04T12:40:11;6.28;;;2.58;;
32080;SDS011;18593;51.426;7.030;2023-06-04T12:42:39;6.45;;;2.50;;
32080;SDS011;18593;51.426;7.030;2023-06-04T12:45:06;6.45;;;2.63;;
32080;SDS011;18593;51.426;7.030;2023-06-04T12:47:36;7.13;;;2.33;;
32080;SDS011;18593;51.426;7.030;2023-06-04T12:50:04;4.43;;;2.10;;
32080;SDS011;18593;51.426;7.030;2023-06-04T12:52:32;4.53;;;2.03;;
32080;SDS011;18593;51.426;7.030;2023-06-04T12:54:59;3.90;;;2.00;;
32080;SDS011;18593;51.426;7.030;2023-06-04T12:57:27;4.88;;;2.22;;
32080;SDS011;18593;51.426;7.030;2023-06-04T12:59:54;5.32;;;2.10;;
32080;SDS011;18593;51.426;7.030;2023-06-04T13:02:22;5.63;;;2.22;;
32080;SDS011;18593;51.426;7.030;2023-06-04T13:04:50;5.05;;;2.25;;
32080;SDS011;18593;51.426;7.030;2023-06-04T13:07:21;6.60;;;2.08;;
32080;SDS011;18593;51.426;7.030;2023-06-04T13:09:48;4.43;;;2.15;;
32080;SDS011;18593;51.426;7.030;2023-06-04T13:12:15;5.25;;;2.17;;
32080;SDS011;18593;51.426;7.030;2023-06-04T13:14:43;3.78;;;1.98;;
32080;SDS011;18593;51.426;7.030;2023-06-04T13:17:10;4.70;;;2.10;;
32080;SDS011;18593;51.426;7.030;2023-06-04T13:19:38;5.32;;;2.20;;
32080;SDS011;18593;51.426;7.030;2023-06-04T13:22:07;7.68;;;2.38;;
32080;SDS011;18593;51.426;7.030;2023-06-04T13:24:35;4.45;;;2.30;;
32080;SDS011;18593;51.426;7.030;2023-06-04T13:27:02;3.47;;;1.85;;
32080;SDS011;18593;51.426;7.030;2023-06-04T13:29:30;5.15;;;1.80;;
32080;SDS011;18593;51.426;7.030;2023-06-04T13:31:58;4.43;;;2.00;;
32080;SDS011;18593;51.426;7.030;2023-06-04T13:34:26;5.78;;;2.10;;
32080;SDS011;18593;51.426;7.030;2023-06-04T13:36:53;7.18;;;2.00;;
32080;SDS011;18593;51.426;7.030;2023-06-04T13:39:22;5.25;;;2.10;;
32080;SDS011;18593;51.426;7.030;2023-06-04T13:41:49;4.45;;;2.10;;
32080;SDS011;18593;51.426;7.030;2023-06-04T13:44:17;5.28;;;2.15;;
32080;SDS011;18593;51.426;7.030;2023-06-04T13:46:45;4.07;;;1.90;;
32080;SDS011;18593;51.426;7.030;2023-06-04T13:49:12;4.88;;;2.15;;
32080;SDS011;18593;51.426;7.030;2023-06-04T13:51:40;6.88;;;2.30;;
32080;SDS011;18593;51.426;7.030;2023-06-04T13:54:07;8.32;;;2.25;;
32080;SDS011;18593;51.426;7.030;2023-06-04T13:56:36;4.43;;;1.95;;
32080;SDS011;18593;51.426;7.030;2023-06-04T13:59:03;5.20;;;2.00;;
32080;SDS011;18593;51.426;7.030;2023-06-04T14:01:31;7.85;;;2.10;;
32080;SDS011;18593;51.426;7.030;2023-06-04T14:03:58;7.20;;;2.05;;
32080;SDS011;18593;51.426;7.030;2023-06-04T14:06:25;5.15;;;2.20;;
32080;SDS011;18593;51.426;7.030;2023-06-04T14:08:53;3.88;;;1.98;;
32080;SDS011;18593;51.426;7.030;2023-06-04T14:11:20;5.97;;;2.05;;
32080;SDS011;18593;51.426;7.030;2023-06-04T14:13:49;5.90;;;2.70;;
32080;SDS011;18593;51.426;7.030;2023-06-04T14:16:16;4.10;;;2.20;;
32080;SDS011;18593;51.426;7.030;2023-06-04T14:18:43;5.28;;;2.00;;
32080;SDS011;18593;51.426;7.030;2023-06-04T14:21:10;7.95;;;2.60;;
32080;SDS011;18593;51.426;7.030;2023-06-04T14:23:37;5.60;;;2.30;;
32080;SDS011;18593;51.426;7.030;2023-06-04T14:26:05;3.60;;;1.88;;
32080;SDS011;18593;51.426;7.030;2023-06-04T14:28:32;6.82;;;2.10;;
32080;SDS011;18593;51.426;7.030;2023-06-04T14:31:01;5.40;;;1.90;;
32080;SDS011;18593;51.426;7.030;2023-06-04T14:33:28;6.85;;;2.00;;
32080;SDS011;18593;51.426;7.030;2023-06-04T14:35:55;4.30;;;1.67;;
32080;SDS011;18593;51.426;7.030;2023-06-04T14:38:23;3.70;;;1.75;;
32080;SDS011;18593;51.426;7.030;2023-06-04T14:40:50;3.72;;;1.80;;
32080;SDS011;18593;51.426;7.030;2023-06-04T14:43:17;7.60;;;2.05;;
32080;SDS011;18593;51.426;7.030;2023-06-04T14:45:44;5.93;;;1.92;;
32080;SDS011;18593;51.426;7.030;2023-06-04T14:48:13;7.65;;;2.05;;
32080;SDS011;18593;51.426;7.030;2023-06-04T14:50:40;9.10;;;1.83;;
32080;SDS011;18593;51.426;7.030;2023-06-04T14:53:08;5.45;;;2.13;;
32080;SDS011;18593;51.426;7.030;2023-06-04T14:55:35;8.85;;;2.40;;
32080;SDS011;18593;51.426;7.030;2023-06-04T14:58:03;5.32;;;2.20;;
32080;SDS011;18593;51.426;7.030;2023-06-04T15:00:30;4.38;;;2.00;;
32080;SDS011;18593;51.426;7.030;2023-06-04T15:02:58;6.00;;;2.00;;